San Francisco, CA (94122)

10:39 AM PDT on July 29, 2015 (GMT -0700)
Mid Richmond District | | Change Station
CLOSE
Current Station
Personal Weather Station
Location: San Francisco, CA
Elevation: 164 ft
Nearby Weather Stations

Elev 164 ft 37.78 °N, 122.48 °W | Updated 5 seconds ago

Clear
Clear
59.4 °F
Feels Like 59.4 °F
N
4.0
Wind Variable Wind from NW
Gusts 9.0 mph

Today
High -- | Low -- °F
--% Chance of Precip.
Yesterday
High -- | Low -- °F
Precip. -- in
6:10 AM 8:21 PM
Waxing Gibbous, 96% visible
Pressure 29.92 in
Visibility 10.0 miles
Clouds Few 900 ft
Dew Point 56 °F
Humidity 87%
Rainfall 0.00 in
Snow Depth Not available.
UV 5 out of 12
Pollen 4.60 out of 12
Air Quality Not available.
Flu Activity Not available.
METAR KSFO 291656Z 01006KT 10SM FEW009 20/16 A2992 RMK AO2 SLP132 T02000156

More Conditions Fewer Conditions

Pressure 29.92 in
Visibility 10.0 miles
Clouds Few 900 ft
Dew Point 56 °F
Humidity 87%
Rainfall 0.00 in
Snow Depth Not available.
UV 5 out of 12
Pollen 4.60 out of 12
Air Quality Not available.
Flu Activity Not available.
METAR KSFO 291656Z 01006KT 10SM FEW009 20/16 A2992 RMK AO2 SLP132 T02000156

More Conditions Fewer Conditions

10-Day Weather Forecast

×

Almanac

Astronomy

Jul. 29, 2015 Rise Set
Actual Time
Civil Twilight
Nautical Twilight
Astronomical Twilight
Moon
Length of Visible Light
Length of Day
Tomorrow will be .
, % of the Moon is Illuminated

Today's Extremes

State Highs State Lows

Community

WunderPhotos

Upload Photos

1,842,134 photos uploaded!

WunderBlogs® & News

Nearby

Air Quality

  Air Quality AQ Index Pollutant
Not available.

Snow Depth

Station Depth Elevation

Earthquake Activity

City Distance Mag. Time & Date
Minimum magnitude displayed is 2.5.

Coastal Water Temperatures

Place Temperature

Stations

Nearby Weather Stations

Station Location Temp. Windchill Dew Point Humidity Wind Precip. Elev Updated Type